Time;durP1;ratioP1;P1;durP2;ratioP2;P2;SDS_P1;SDS_P2;PMS_P1;PMS_P2;Temp;Humidity;BMP_temperature;BMP_pressure;BME280_temperature;BME280_humidity;BME280_pressure;Samples;Min_cycle;Max_cycle;Signal;HPM_P1;HPM_P2
2022/01/05 00:02:15;;;;;;;8.23;2.00;;;1.90;99.90;;;;;;5063398;28;20037;-55
2022/01/05 00:04:41;;;;;;;9.15;1.30;;;1.90;99.90;;;;;;5062289;28;20040;-53
2022/01/05 00:07:07;;;;;;;9.25;2.00;;;1.90;99.90;;;;;;5066292;28;20040;-55
2022/01/05 00:09:33;;;;;;;10.45;2.30;;;1.90;99.90;;;;;;5060251;28;20048;-55
2022/01/05 00:11:59;;;;;;;10.25;2.30;;;1.90;99.90;;;;;;5062731;28;20047;-52
2022/01/05 00:14:24;;;;;;;12.35;2.30;;;1.90;99.90;;;;;;5062272;28;20070;-54
2022/01/05 00:16:50;;;;;;;10.02;1.95;;;1.90;99.90;;;;;;5058209;28;20376;-53
2022/01/05 00:19:16;;;;;;;13.85;1.88;;;1.90;99.90;;;;;;5059299;28;20044;-55
2022/01/05 00:21:42;;;;;;;14.82;2.17;;;1.90;99.90;;;;;;5063714;28;20051;-53
2022/01/05 00:24:08;;;;;;;9.07;3.00;;;1.90;99.90;;;;;;5060837;28;20052;-53
2022/01/05 00:26:34;;;;;;;17.50;2.40;;;1.90;99.90;;;;;;5066430;28;20072;-54
2022/01/05 00:29:00;;;;;;;16.35;2.05;;;2.00;99.90;;;;;;5059321;28;20037;-57
2022/01/05 00:31:26;;;;;;;11.50;2.63;;;2.10;99.90;;;;;;5054763;28;20048;-55
2022/01/05 00:33:52;;;;;;;10.55;2.15;;;2.10;99.90;;;;;;5056014;28;20049;-57
2022/01/05 00:36:18;;;;;;;9.98;2.00;;;2.10;99.90;;;;;;5064272;28;20067;-57
2022/01/05 00:38:44;;;;;;;15.77;2.88;;;2.20;99.90;;;;;;5060743;28;20098;-55
2022/01/05 00:41:09;;;;;;;13.82;2.03;;;2.30;99.90;;;;;;5058873;28;20037;-55
2022/01/05 00:43:35;;;;;;;13.63;2.05;;;2.30;99.90;;;;;;5058751;28;20036;-58
2022/01/05 00:46:00;;;;;;;11.52;2.60;;;2.40;99.90;;;;;;5065611;28;20043;-55
2022/01/05 00:48:28;;;;;;;12.88;2.10;;;2.40;99.90;;;;;;5060143;28;20505;-56
2022/01/05 00:50:54;;;;;;;11.57;1.85;;;2.30;99.90;;;;;;5062348;28;20090;-57
2022/01/05 00:53:19;;;;;;;8.38;1.95;;;2.30;99.90;;;;;;5059641;28;20041;-56
2022/01/05 00:55:45;;;;;;;7.05;1.70;;;2.20;99.90;;;;;;5060006;28;20487;-53
2022/01/05 00:58:10;;;;;;;12.85;2.15;;;2.00;99.90;;;;;;5058115;28;20482;-57
2022/01/05 01:00:36;;;;;;;14.90;2.63;;;2.00;99.90;;;;;;5061436;28;20194;-58
2022/01/05 01:03:02;;;;;;;8.73;2.10;;;2.00;99.90;;;;;;5056740;28;20040;-57
2022/01/05 01:05:27;;;;;;;10.68;2.20;;;1.90;99.90;;;;;;5057131;28;20033;-56
2022/01/05 01:07:53;;;;;;;11.35;2.38;;;1.90;99.90;;;;;;5059513;28;20052;-57
2022/01/05 01:10:18;;;;;;;10.63;2.33;;;1.80;99.90;;;;;;5060474;28;20041;-53
2022/01/05 01:12:44;;;;;;;10.50;1.98;;;1.70;99.90;;;;;;5061557;28;20431;-56
2022/01/05 01:15:11;;;;;;;8.43;2.10;;;1.70;99.90;;;;;;5057851;28;20508;-55
2022/01/05 01:17:37;;;;;;;12.73;1.80;;;1.70;99.90;;;;;;5063180;28;20426;-55
2022/01/05 01:20:04;;;;;;;8.55;1.65;;;1.70;99.90;;;;;;5066988;28;20287;-55
2022/01/05 01:22:31;;;;;;;13.20;2.33;;;1.60;99.90;;;;;;5061984;28;20487;-55
2022/01/05 01:24:57;;;;;;;13.70;2.50;;;1.70;99.90;;;;;;5056317;28;20410;-55
2022/01/05 01:27:23;;;;;;;14.15;2.17;;;1.70;99.90;;;;;;5054478;28;20426;-56
2022/01/05 01:29:48;;;;;;;12.18;1.70;;;1.60;99.90;;;;;;5056774;28;20040;-55
2022/01/05 01:32:14;;;;;;;9.93;2.10;;;1.60;99.90;;;;;;5059929;28;20053;-52
2022/01/05 01:34:39;;;;;;;8.48;2.10;;;1.60;99.90;;;;;;5067233;28;20167;-56
2022/01/05 01:37:05;;;;;;;10.52;2.25;;;1.60;99.90;;;;;;5060222;28;20037;-55
2022/01/05 01:39:30;;;;;;;12.07;2.10;;;1.60;99.90;;;;;;5062734;28;20047;-54
2022/01/05 01:41:56;;;;;;;10.40;2.00;;;1.60;99.90;;;;;;5063536;28;20044;-55
2022/01/05 01:44:22;;;;;;;10.93;2.15;;;1.60;99.90;;;;;;5065799;28;20119;-55
2022/01/05 01:46:47;;;;;;;11.73;2.60;;;1.60;99.90;;;;;;5062035;28;20498;-53
2022/01/05 01:49:13;;;;;;;11.18;2.00;;;1.70;99.90;;;;;;5063468;28;20175;-55
2022/01/05 01:51:39;;;;;;;12.57;1.98;;;1.60;99.90;;;;;;5062013;28;20040;-55
2022/01/05 01:54:06;;;;;;;11.43;1.90;;;1.60;99.90;;;;;;5061123;28;20065;-53
2022/01/05 01:56:33;;;;;;;10.70;2.42;;;1.60;99.90;;;;;;5064866;28;20055;-55
2022/01/05 01:59:00;;;;;;;10.90;2.10;;;1.60;99.90;;;;;;5066160;28;20044;-51
2022/01/05 02:01:26;;;;;;;13.60;2.08;;;1.70;99.90;;;;;;5068712;28;20529;-55
2022/01/05 02:03:51;;;;;;;11.57;2.20;;;1.70;99.90;;;;;;5059835;28;20036;-54
2022/01/05 02:06:17;;;;;;;7.63;1.90;;;1.70;99.90;;;;;;5062959;28;20049;-55
2022/01/05 02:08:43;;;;;;;14.80;2.58;;;1.70;99.90;;;;;;5062826;28;20051;-55
2022/01/05 02:11:10;;;;;;;10.25;1.88;;;1.70;99.90;;;;;;5060873;28;20102;-55
2022/01/05 02:13:36;;;;;;;11.18;2.25;;;1.70;99.90;;;;;;5061605;28;20102;-55
2022/01/05 02:16:03;;;;;;;12.63;2.22;;;1.70;99.90;;;;;;5069657;28;20071;-53
2022/01/05 02:21:02;;;;;;;15.60;2.40;;;1.70;99.90;;;;;;5061907;28;20124;-53
2022/01/05 02:23:28;;;;;;;11.18;2.17;;;1.60;99.90;;;;;;5062978;28;20128;-57
2022/01/05 02:25:54;;;;;;;10.80;2.08;;;1.60;99.90;;;;;;5061910;28;20045;-53
2022/01/05 02:28:20;;;;;;;10.60;2.85;;;1.60;99.90;;;;;;5064503;28;20041;-54
2022/01/05 02:30:50;;;;;;;9.95;1.90;;;1.50;99.90;;;;;;5062107;28;20414;-55
2022/01/05 02:33:16;;;;;;;9.90;1.95;;;1.60;99.90;;;;;;5061608;28;20045;-57
2022/01/05 02:35:42;;;;;;;16.27;2.72;;;1.50;99.90;;;;;;5064400;28;20049;-57
2022/01/05 02:38:07;;;;;;;13.73;2.25;;;1.50;99.90;;;;;;5066400;28;20454;-57
2022/01/05 02:40:33;;;;;;;12.23;2.17;;;1.50;99.90;;;;;;5057335;28;20037;-55
2022/01/05 02:42:58;;;;;;;10.60;2.15;;;1.50;99.90;;;;;;5058507;28;20474;-54
2022/01/05 02:45:24;;;;;;;12.10;2.30;;;1.40;99.90;;;;;;5064415;28;20528;-52
2022/01/05 02:47:50;;;;;;;10.82;1.77;;;1.50;99.90;;;;;;5063497;28;20039;-55
2022/01/05 02:50:16;;;;;;;11.55;1.90;;;1.40;99.90;;;;;;5063255;28;20037;-56
2022/01/05 02:52:42;;;;;;;15.88;2.50;;;1.40;99.90;;;;;;5060542;28;20467;-54
2022/01/05 02:55:09;;;;;;;8.02;1.90;;;1.50;99.90;;;;;;5064379;28;20052;-56
2022/01/05 02:57:35;;;;;;;13.50;1.92;;;1.50;99.90;;;;;;5068706;28;20398;-55
2022/01/05 03:00:02;;;;;;;12.23;2.25;;;1.50;99.90;;;;;;5060997;28;20168;-54
2022/01/05 03:02:28;;;;;;;9.57;1.70;;;1.50;99.90;;;;;;5059733;28;20057;-53
2022/01/05 03:04:54;;;;;;;13.38;2.25;;;1.50;99.90;;;;;;5056910;28;20041;-56
2022/01/05 03:07:19;;;;;;;10.40;1.80;;;1.50;99.90;;;;;;5062741;28;20162;-55
2022/01/05 03:09:45;;;;;;;10.48;2.08;;;1.50;99.90;;;;;;5062329;28;20446;-56
2022/01/05 03:12:11;;;;;;;11.88;2.30;;;1.50;99.90;;;;;;5058387;28;20462;-54
2022/01/05 03:14:37;;;;;;;12.05;2.08;;;1.50;99.90;;;;;;5058495;28;20048;-55
2022/01/05 03:17:03;;;;;;;12.27;2.05;;;1.50;99.90;;;;;;5063864;28;20102;-56
2022/01/05 03:19:29;;;;;;;10.48;1.90;;;1.50;99.90;;;;;;5059977;28;20037;-57
2022/01/05 03:21:54;;;;;;;11.63;1.90;;;1.50;99.90;;;;;;5058684;28;20037;-56
2022/01/05 03:24:20;;;;;;;18.05;2.20;;;1.50;99.90;;;;;;5061027;28;20041;-56
2022/01/05 03:26:45;;;;;;;8.80;2.60;;;1.50;99.90;;;;;;5056041;28;20063;-55
2022/01/05 03:29:11;;;;;;;10.32;2.08;;;1.50;99.90;;;;;;5055082;28;20040;-56
2022/01/05 03:31:36;;;;;;;14.60;2.42;;;1.50;99.90;;;;;;5062070;28;20048;-56
2022/01/05 03:34:04;;;;;;;13.48;2.10;;;1.50;99.90;;;;;;5067659;28;20052;-57
2022/01/05 03:36:30;;;;;;;9.90;2.10;;;1.50;99.90;;;;;;5064435;28;20057;-56
2022/01/05 03:38:55;;;;;;;12.27;2.05;;;1.50;99.90;;;;;;5060563;28;20051;-54
2022/01/05 03:41:21;;;;;;;10.27;1.77;;;1.50;99.90;;;;;;5061771;28;20057;-53
2022/01/05 03:43:47;;;;;;;11.00;2.78;;;1.50;99.90;;;;;;5061123;28;20257;-54
2022/01/05 03:46:13;;;;;;;13.77;2.45;;;1.50;99.90;;;;;;5056293;28;20381;-55
2022/01/05 03:48:39;;;;;;;9.05;1.85;;;1.50;99.90;;;;;;5062607;28;20033;-55
2022/01/05 03:51:04;;;;;;;8.75;2.22;;;1.60;99.90;;;;;;5053926;28;20045;-57
2022/01/05 03:53:30;;;;;;;18.02;2.78;;;1.60;99.90;;;;;;5061114;28;20123;-54
2022/01/05 03:55:55;;;;;;;12.48;2.00;;;1.60;99.90;;;;;;5063112;28;20040;-55
2022/01/05 03:58:21;;;;;;;16.10;2.53;;;1.60;99.90;;;;;;5057029;28;20044;-56
2022/01/05 04:00:49;;;;;;;9.70;2.65;;;1.60;99.90;;;;;;5064273;28;20044;-55
2022/01/05 04:03:16;;;;;;;14.82;2.58;;;1.60;99.90;;;;;;5062700;28;20153;-57
2022/01/05 04:05:42;;;;;;;11.65;2.45;;;1.60;99.90;;;;;;5057015;28;20461;-55
2022/01/05 04:08:08;;;;;;;21.98;2.63;;;1.70;99.90;;;;;;5061285;28;20189;-55
2022/01/05 04:10:33;;;;;;;12.15;2.20;;;1.60;99.90;;;;;;5061804;28;20051;-54
2022/01/05 04:12:59;;;;;;;9.93;2.30;;;1.70;99.90;;;;;;5062987;28;20053;-56
2022/01/05 04:15:26;;;;;;;9.40;2.63;;;1.70;99.90;;;;;;5063648;28;20082;-55
2022/01/05 04:17:52;;;;;;;16.17;2.35;;;1.60;99.90;;;;;;5058488;28;20543;-56
2022/01/05 04:20:18;;;;;;;12.85;3.28;;;1.70;99.90;;;;;;5059968;28;20115;-57
2022/01/05 04:22:44;;;;;;;14.85;2.30;;;1.70;99.90;;;;;;5060658;28;20037;-54
2022/01/05 04:25:10;;;;;;;12.65;2.45;;;1.70;99.90;;;;;;5063023;28;20129;-56
2022/01/05 04:27:36;;;;;;;15.75;2.75;;;1.70;99.90;;;;;;5060175;28;20406;-56
2022/01/05 04:30:03;;;;;;;13.35;3.10;;;1.70;99.90;;;;;;5062992;28;20032;-56
2022/01/05 04:32:29;;;;;;;8.35;2.17;;;1.70;99.90;;;;;;5059270;28;20140;-56
2022/01/05 04:34:54;;;;;;;18.17;2.65;;;1.70;99.90;;;;;;5059688;28;20207;-55
2022/01/05 04:37:20;;;;;;;14.43;2.42;;;1.70;99.90;;;;;;5059318;28;20094;-55
2022/01/05 04:39:46;;;;;;;9.88;2.17;;;1.70;99.90;;;;;;5062613;28;20547;-55
2022/01/05 04:42:11;;;;;;;13.93;2.65;;;1.70;99.90;;;;;;5054293;28;20072;-53
2022/01/05 04:44:37;;;;;;;17.15;3.05;;;1.80;99.90;;;;;;5058909;28;20071;-55
2022/01/05 04:47:03;;;;;;;15.23;2.38;;;1.80;99.90;;;;;;5060754;28;20551;-54
2022/01/05 04:49:29;;;;;;;18.58;2.95;;;1.90;99.90;;;;;;5064592;28;20028;-54
2022/01/05 04:51:54;;;;;;;15.18;2.85;;;2.00;99.90;;;;;;5057766;28;20091;-56
2022/01/05 04:54:20;;;;;;;13.98;2.45;;;2.10;99.90;;;;;;5058970;28;20513;-55
2022/01/05 04:56:46;;;;;;;16.70;2.72;;;2.10;99.90;;;;;;5058747;28;20083;-56
2022/01/05 04:59:11;;;;;;;14.82;2.97;;;2.10;99.90;;;;;;5064469;28;20040;-55
2022/01/05 05:01:37;;;;;;;17.30;3.08;;;2.20;99.90;;;;;;5053494;28;20045;-56
2022/01/05 05:04:03;;;;;;;17.45;2.78;;;2.30;99.90;;;;;;5059398;28;20045;-54
2022/01/05 05:06:28;;;;;;;17.10;3.13;;;2.30;99.90;;;;;;5059297;28;20101;-55
2022/01/05 05:08:54;;;;;;;16.98;3.40;;;2.30;99.90;;;;;;5054724;28;20414;-56
2022/01/05 05:11:19;;;;;;;11.43;2.70;;;2.20;99.90;;;;;;5060662;28;20391;-52
2022/01/05 05:13:45;;;;;;;15.45;2.90;;;2.20;99.90;;;;;;5057942;28;20368;-56
2022/01/05 05:16:11;;;;;;;15.05;2.88;;;2.20;99.90;;;;;;5057331;28;20392;-57
2022/01/05 05:18:36;;;;;;;14.82;2.58;;;2.10;99.90;;;;;;5053725;28;20048;-56
2022/01/05 05:21:03;;;;;;;17.08;3.22;;;2.10;99.90;;;;;;5058652;28;20040;-53
2022/01/05 05:23:28;;;;;;;18.63;3.13;;;2.10;99.90;;;;;;5057373;28;20502;-56
2022/01/05 05:25:54;;;;;;;15.57;2.85;;;2.10;99.90;;;;;;5060503;28;20087;-53
2022/01/05 05:28:20;;;;;;;15.50;3.00;;;2.10;99.90;;;;;;5061966;28;20065;-55
2022/01/05 05:30:45;;;;;;;16.08;2.97;;;2.10;99.90;;;;;;5053626;28;20048;-54
2022/01/05 05:33:11;;;;;;;12.68;2.90;;;2.10;99.90;;;;;;5061744;28;20095;-55
2022/01/05 05:35:39;;;;;;;21.25;3.45;;;2.20;99.90;;;;;;5054003;28;20115;-58
2022/01/05 05:38:05;;;;;;;16.65;2.90;;;2.30;99.90;;;;;;5063384;28;20060;-57
2022/01/05 05:40:30;;;;;;;19.63;3.75;;;2.30;99.90;;;;;;5060298;28;20487;-57
2022/01/05 05:42:56;;;;;;;16.63;3.78;;;2.40;99.90;;;;;;5065355;28;20044;-56
2022/01/05 05:45:22;;;;;;;18.83;3.10;;;2.50;99.90;;;;;;5060354;28;20037;-56
2022/01/05 05:47:48;;;;;;;19.17;4.00;;;2.50;99.90;;;;;;5063840;28;20094;-55
2022/01/05 05:50:14;;;;;;;13.80;3.10;;;2.60;99.90;;;;;;5058857;28;20418;-56
2022/01/05 05:52:39;;;;;;;21.13;3.33;;;2.60;99.90;;;;;;5064007;28;20349;-57
2022/01/05 05:55:05;;;;;;;17.40;3.42;;;2.70;99.90;;;;;;5060360;28;20037;-56
2022/01/05 05:57:31;;;;;;;16.65;3.15;;;2.70;99.90;;;;;;5060374;28;20041;-56
2022/01/05 05:59:57;;;;;;;17.70;3.30;;;2.70;99.90;;;;;;5059081;28;20090;-54
2022/01/05 06:02:22;;;;;;;21.30;3.60;;;2.60;99.90;;;;;;5058996;28;20048;-56
2022/01/05 06:04:48;;;;;;;18.55;3.15;;;2.70;99.90;;;;;;5058613;28;20040;-58
2022/01/05 06:07:13;;;;;;;15.82;3.53;;;2.70;99.90;;;;;;5063138;28;20067;-55
2022/01/05 06:09:39;;;;;;;16.05;3.50;;;2.70;99.90;;;;;;5062657;28;20037;-55
2022/01/05 06:12:05;;;;;;;18.50;3.30;;;2.70;99.90;;;;;;5062594;28;20053;-56
2022/01/05 06:14:30;;;;;;;21.55;3.40;;;2.80;99.90;;;;;;5055231;28;20075;-55
2022/01/05 06:16:56;;;;;;;18.60;3.08;;;2.80;99.90;;;;;;5052758;28;20049;-56
2022/01/05 06:19:22;;;;;;;18.92;3.63;;;;;;;;;;5055087;28;20049;-55
2022/01/05 06:21:50;;;;;;;19.38;3.50;;;2.90;99.90;;;;;;5055686;28;20048;-58
2022/01/05 06:24:16;;;;;;;;;;;2.90;99.90;;;;;;5061296;28;20406;-55
2022/01/05 06:26:41;;;;;;;18.85;3.70;;;3.00;99.90;;;;;;5059020;28;19920;-57
2022/01/05 06:29:08;;;;;;;18.77;3.30;;;3.00;99.90;;;;;;5066639;28;20047;-56
2022/01/05 06:31:34;;;;;;;20.48;3.50;;;3.00;99.90;;;;;;5066593;28;20675;-56
2022/01/05 06:33:59;;;;;;;24.70;3.47;;;3.00;99.90;;;;;;5067549;28;20036;-54
2022/01/05 06:36:25;;;;;;;15.85;3.45;;;3.00;99.90;;;;;;5061450;28;20076;-55
2022/01/05 06:38:51;;;;;;;15.25;3.20;;;3.00;99.90;;;;;;5059328;28;20036;-56
2022/01/05 06:41:16;;;;;;;23.13;3.70;;;3.00;99.90;;;;;;5068440;28;20040;-55
2022/01/05 06:43:42;;;;;;;11.57;2.80;;;3.10;99.90;;;;;;5067748;28;20414;-55
2022/01/05 06:46:08;;;;;;;19.05;3.40;;;3.10;99.90;;;;;;5060777;28;20032;-55
2022/01/05 06:48:33;;;;;;;22.73;3.75;;;3.10;99.90;;;;;;5064528;28;20043;-56
2022/01/05 06:50:59;;;;;;;23.60;3.58;;;3.10;99.90;;;;;;5065682;28;20525;-53
2022/01/05 06:53:24;;;;;;;23.48;3.83;;;3.20;99.90;;;;;;5065684;28;20084;-55
2022/01/05 06:55:50;;;;;;;25.20;4.07;;;3.20;99.90;;;;;;5066544;28;20102;-55
2022/01/05 06:58:16;;;;;;;25.63;3.85;;;3.20;99.90;;;;;;5063879;28;20128;-56
2022/01/05 07:00:41;;;;;;;23.95;4.20;;;3.20;99.90;;;;;;5061412;28;20110;-57
2022/01/05 07:03:07;;;;;;;21.05;3.47;;;3.20;99.90;;;;;;5062095;28;20040;-58
2022/01/05 07:05:32;;;;;;;22.52;3.85;;;3.30;99.90;;;;;;5061717;28;20141;-56
2022/01/05 07:07:58;;;;;;;26.85;4.25;;;3.30;99.90;;;;;;5064770;28;20037;-56
2022/01/05 07:10:24;;;;;;;20.70;3.95;;;3.20;99.90;;;;;;5070628;28;20039;-55
2022/01/05 07:12:50;;;;;;;18.27;3.95;;;3.20;99.90;;;;;;5070832;28;20072;-52
2022/01/05 07:15:17;;;;;;;19.55;4.70;;;3.20;99.90;;;;;;5064580;28;20044;-56
2022/01/05 07:17:42;;;;;;;25.05;5.13;;;3.20;99.90;;;;;;5072653;28;20082;-53
2022/01/05 07:20:09;;;;;;;18.85;3.50;;;3.10;99.90;;;;;;5071552;28;20371;-55
2022/01/05 07:22:36;;;;;;;18.13;4.05;;;3.00;99.90;;;;;;5062961;28;20151;-55
2022/01/05 07:25:02;;;;;;;14.55;3.72;;;3.00;99.90;;;;;;5070371;28;20067;-55
2022/01/05 07:27:28;;;;;;;12.27;3.50;;;2.90;99.90;;;;;;5071507;28;20057;-57
2022/01/05 07:29:54;;;;;;;17.50;3.85;;;2.90;99.90;;;;;;5071161;28;20123;-56
2022/01/05 07:32:19;;;;;;;13.70;3.53;;;2.80;99.90;;;;;;5072177;28;20502;-56
2022/01/05 07:34:45;;;;;;;13.80;3.35;;;2.80;99.90;;;;;;5071973;28;20037;-55
2022/01/05 07:37:10;;;;;;;21.48;3.97;;;2.80;99.90;;;;;;5072231;28;20390;-57
2022/01/05 07:39:36;;;;;;;15.90;3.95;;;2.80;99.90;;;;;;5071138;28;20113;-54
2022/01/05 07:42:03;;;;;;;19.20;3.72;;;2.70;99.90;;;;;;5072384;28;20045;-55
2022/01/05 07:44:28;;;;;;;17.38;3.63;;;2.70;99.90;;;;;;5071290;28;20087;-54
2022/01/05 07:46:54;;;;;;;13.27;3.60;;;2.60;99.90;;;;;;5072681;28;20476;-56
2022/01/05 07:49:19;;;;;;;20.75;3.25;;;2.60;99.90;;;;;;5070625;28;20048;-55
2022/01/05 07:51:45;;;;;;;19.27;3.42;;;2.50;99.90;;;;;;5071965;28;20078;-55
2022/01/05 07:54:11;;;;;;;21.95;3.90;;;2.40;99.90;;;;;;5064856;28;20068;-54
2022/01/05 07:56:37;;;;;;;15.85;4.22;;;2.40;99.90;;;;;;5061045;28;20111;-54
2022/01/05 07:59:03;;;;;;;20.42;4.60;;;2.40;99.90;;;;;;5065096;28;20052;-53
2022/01/05 08:01:29;;;;;;;25.38;5.10;;;2.40;99.90;;;;;;5067860;28;20060;-50
2022/01/05 08:03:54;;;;;;;18.50;4.45;;;2.50;99.90;;;;;;5070450;28;20166;-51
2022/01/05 08:06:21;;;;;;;24.00;4.78;;;2.50;99.90;;;;;;5071814;28;20041;-51
2022/01/05 08:08:47;;;;;;;22.95;5.05;;;2.70;99.90;;;;;;5069310;28;20045;-51
2022/01/05 08:11:13;;;;;;;20.00;5.20;;;2.70;99.90;;;;;;5070572;28;20075;-55
2022/01/05 08:13:39;;;;;;;22.48;5.80;;;2.80;99.90;;;;;;5071492;28;20090;-54
2022/01/05 08:16:05;;;;;;;26.38;7.07;;;2.90;99.90;;;;;;5070427;28;20079;-51
2022/01/05 08:18:31;;;;;;;29.77;7.15;;;3.00;99.90;;;;;;5071123;28;20126;-49
2022/01/05 08:20:56;;;;;;;32.95;6.50;;;3.10;99.90;;;;;;5071463;28;20045;-51
2022/01/05 08:23:23;;;;;;;20.42;6.00;;;3.30;99.90;;;;;;5070919;28;20043;-51
2022/01/05 08:25:49;;;;;;;30.65;6.70;;;3.40;99.90;;;;;;5053560;28;20323;-52
2022/01/05 08:28:16;;;;;;;26.40;6.28;;;3.60;99.90;;;;;;5060227;28;20047;-53
2022/01/05 08:30:44;;;;;;;23.20;5.10;;;3.70;99.90;;;;;;5066639;28;20043;-52
2022/01/05 08:33:09;;;;;;;;;;;3.80;99.90;;;;;;5072189;28;20049;-52
2022/01/05 08:35:35;;;;;;;24.50;5.00;;;3.90;99.90;;;;;;5055530;28;19935;-55
2022/01/05 08:38:02;;;;;;;15.57;3.60;;;4.00;99.90;;;;;;5071006;28;20107;-53
2022/01/05 08:40:28;;;;;;;26.77;4.13;;;4.00;99.90;;;;;;5069584;28;20040;-55
2022/01/05 08:42:55;;;;;;;20.30;3.10;;;4.10;99.90;;;;;;5071613;28;20048;-55
2022/01/05 08:45:21;;;;;;;16.80;3.63;;;4.10;99.90;;;;;;5065750;28;20076;-53
2022/01/05 08:47:50;;;;;;;12.25;2.90;;;4.10;99.90;;;;;;5051793;28;20029;-55
2022/01/05 08:50:18;;;;;;;16.05;2.90;;;4.20;99.90;;;;;;5068152;28;20116;-55
2022/01/05 08:52:45;;;;;;;21.83;3.17;;;4.20;99.90;;;;;;5060248;28;20051;-53
2022/01/05 08:55:11;;;;;;;22.60;3.30;;;4.30;99.90;;;;;;5064290;28;20033;-54
2022/01/05 08:57:38;;;;;;;20.67;3.05;;;4.30;99.90;;;;;;5064147;28;20055;-52
2022/01/05 09:00:05;;;;;;;15.20;2.55;;;4.30;99.90;;;;;;5062783;28;20195;-53
2022/01/05 09:02:31;;;;;;;17.98;2.90;;;4.40;99.90;;;;;;5067130;28;20580;-54
2022/01/05 09:04:56;;;;;;;11.52;2.75;;;4.40;99.90;;;;;;5063504;28;20215;-55
2022/01/05 09:07:22;;;;;;;15.68;2.60;;;4.40;99.90;;;;;;5071831;28;20479;-55
2022/01/05 09:09:47;;;;;;;19.67;3.13;;;4.40;99.90;;;;;;5059271;28;20132;-50
2022/01/05 09:12:13;;;;;;;12.45;1.98;;;4.50;99.90;;;;;;5065999;28;20041;-50
2022/01/05 09:14:40;;;;;;;11.95;1.80;;;4.50;99.90;;;;;;5054814;28;20067;-52
2022/01/05 09:17:06;;;;;;;15.98;1.83;;;4.50;99.90;;;;;;5068589;28;20084;-54
2022/01/05 09:19:33;;;;;;;12.30;1.90;;;4.60;99.90;;;;;;5068896;28;20048;-55
2022/01/05 09:21:58;;;;;;;10.82;1.63;;;4.70;99.90;;;;;;5064002;28;20043;-52
2022/01/05 09:24:25;;;;;;;18.00;2.50;;;4.70;99.90;;;;;;5057132;28;20036;-55
2022/01/05 09:26:51;;;;;;;12.45;2.42;;;4.80;99.90;;;;;;5061250;28;20084;-55
2022/01/05 09:29:18;;;;;;;17.05;2.45;;;5.00;99.90;;;;;;5056243;28;20488;-52
2022/01/05 09:31:43;;;;;;;15.45;2.25;;;5.10;99.90;;;;;;5061397;28;20088;-50
2022/01/05 09:34:09;;;;;;;18.60;2.80;;;5.10;99.90;;;;;;5062839;28;20072;-49
2022/01/05 09:36:43;;;;;;;22.55;2.50;;;5.20;99.90;;;;;;5065885;28;20045;-51
2022/01/05 09:41:56;;;;;;;17.02;2.83;;;5.40;99.90;;;;;;5060253;28;20298;-50
2022/01/05 09:44:27;;;;;;;13.93;2.42;;;5.40;99.90;;;;;;5070740;28;20041;-55
2022/01/05 09:46:55;;;;;;;15.00;2.40;;;5.40;99.90;;;;;;5070598;28;20093;-53
2022/01/05 09:49:36;;;;;;;13.80;2.13;;;5.40;99.90;;;;;;5068779;28;20060;-49
2022/01/05 09:52:07;;;;;;;12.27;2.03;;;5.30;99.90;;;;;;5070180;28;20498;-53
2022/01/05 09:54:34;;;;;;;12.02;2.38;;;5.30;99.90;;;;;;5070637;28;20040;-54
2022/01/05 09:57:00;;;;;;;11.68;2.22;;;5.30;99.90;;;;;;5071976;28;20052;-52
2022/01/05 09:59:28;;;;;;;15.07;2.95;;;5.50;99.90;;;;;;5060494;28;20065;-51
2022/01/05 10:01:54;;;;;;;15.90;2.58;;;5.60;99.90;;;;;;5056495;28;20428;-55
2022/01/05 10:04:21;;;;;;;12.60;2.42;;;5.70;99.90;;;;;;5054631;28;20045;-55
2022/01/05 10:06:47;;;;;;;17.13;2.63;;;5.60;99.90;;;;;;5072657;28;20540;-56
2022/01/05 10:09:14;;;;;;;15.13;2.78;;;5.60;99.90;;;;;;5074645;28;20080;-54
2022/01/05 10:11:40;;;;;;;17.90;2.78;;;5.60;99.90;;;;;;5065390;28;20053;-55
2022/01/05 10:14:06;;;;;;;16.00;2.88;;;5.60;99.90;;;;;;5064567;28;20048;-55
2022/01/05 10:16:32;;;;;;;14.30;2.47;;;5.60;99.90;;;;;;5068219;28;20394;-55
2022/01/05 10:18:59;;;;;;;21.55;2.53;;;5.50;99.90;;;;;;5074355;28;20181;-53
2022/01/05 10:21:36;;;;;;;10.70;2.30;;;5.50;99.90;;;;;;5069877;28;20040;-55
2022/01/05 10:24:02;;;;;;;13.68;2.30;;;5.50;99.90;;;;;;5069560;28;20139;-55
2022/01/05 10:26:32;;;;;;;17.33;2.25;;;5.50;99.90;;;;;;5074014;28;20037;-54
2022/01/05 10:29:04;;;;;;;16.48;2.17;;;5.60;99.90;;;;;;5067624;28;20147;-56
2022/01/05 10:31:38;;;;;;;18.63;2.90;;;5.60;99.90;;;;;;5065502;28;20064;-54
2022/01/05 10:34:17;;;;;;;19.80;2.95;;;5.60;99.90;;;;;;5073203;28;20448;-56
2022/01/05 10:36:43;;;;;;;20.10;2.88;;;5.70;99.90;;;;;;5054125;28;20072;-57
2022/01/05 10:39:09;;;;;;;14.82;2.88;;;5.80;99.90;;;;;;5073774;28;20044;-55
2022/01/05 10:41:37;;;;;;;20.20;3.00;;;5.80;99.90;;;;;;5071203;28;20039;-54
2022/01/05 10:44:10;;;;;;;20.17;3.08;;;5.90;99.90;;;;;;5057163;28;20037;-49
2022/01/05 10:46:39;;;;;;;17.77;3.60;;;5.90;99.90;;;;;;5070061;28;20049;-52
2022/01/05 10:49:05;;;;;;;19.52;3.13;;;5.90;99.90;;;;;;5070638;28;20068;-51
2022/01/05 10:51:32;;;;;;;18.60;3.35;;;6.00;99.90;;;;;;5073126;28;20036;-52
2022/01/05 10:54:15;;;;;;;16.98;3.63;;;6.00;99.90;;;;;;5073534;28;20079;-54
2022/01/05 10:56:42;;;;;;;20.92;3.25;;;6.10;99.90;;;;;;5073177;28;20040;-54
2022/01/05 10:59:08;;;;;;;14.60;3.03;;;6.10;99.90;;;;;;5072655;28;20029;-54
2022/01/05 11:01:34;;;;;;;20.45;3.70;;;6.10;99.90;;;;;;5068985;28;20040;-55
2022/01/05 11:04:15;;;;;;;17.67;3.28;;;6.20;99.90;;;;;;5072133;28;20067;-53
2022/01/05 11:06:58;;;;;;;16.73;3.53;;;6.30;99.90;;;;;;5072692;28;20050;-52
2022/01/05 11:09:23;;;;;;;21.55;3.60;;;6.40;99.90;;;;;;5073280;28;20044;-53
2022/01/05 11:11:50;;;;;;;16.63;2.80;;;6.40;99.90;;;;;;5072803;28;20372;-55
2022/01/05 11:14:20;;;;;;;19.63;2.75;;;6.40;99.90;;;;;;5071464;28;20056;-53
2022/01/05 11:16:54;;;;;;;18.50;2.80;;;6.50;99.90;;;;;;5073033;28;20032;-53
2022/01/05 11:19:20;;;;;;;19.00;2.58;;;6.40;99.90;;;;;;5072409;28;20049;-53
2022/01/05 11:22:01;;;;;;;17.98;2.55;;;6.40;99.90;;;;;;5069073;28;20048;-53
2022/01/05 11:24:29;;;;;;;15.30;2.47;;;6.50;99.90;;;;;;5052957;28;20349;-53
2022/01/05 11:26:55;;;;;;;12.33;2.20;;;6.50;99.90;;;;;;5071438;28;20086;-54
2022/01/05 11:29:21;;;;;;;13.52;2.45;;;6.40;99.90;;;;;;5060948;28;20794;-54
2022/01/05 11:31:47;;;;;;;22.65;3.00;;;6.50;99.90;;;;;;5065067;28;20163;-53
2022/01/05 11:34:13;;;;;;;18.60;2.75;;;6.50;99.90;;;;;;5064611;28;20178;-52
2022/01/05 11:36:41;;;;;;;23.35;3.22;;;6.50;99.90;;;;;;5061352;28;20036;-54
2022/01/05 11:39:07;;;;;;;21.25;3.15;;;6.50;99.90;;;;;;5071386;28;20072;-55
2022/01/05 11:41:41;;;;;;;14.63;2.30;;;6.50;99.90;;;;;;5066832;28;20362;-51
2022/01/05 11:44:07;;;;;;;20.38;3.35;;;6.60;99.90;;;;;;5073315;28;20132;-55
2022/01/05 11:46:33;;;;;;;18.92;3.47;;;6.60;99.90;;;;;;5054541;28;20467;-55
2022/01/05 11:49:08;;;;;;;18.00;3.25;;;6.70;99.90;;;;;;5071113;28;20044;-54
2022/01/05 11:51:43;;;;;;;14.68;2.97;;;6.70;99.90;;;;;;5067911;28;20071;-54
2022/01/05 11:54:19;;;;;;;21.92;3.38;;;6.70;99.90;;;;;;5070553;28;20044;-53
2022/01/05 11:56:52;;;;;;;23.27;3.58;;;6.70;99.90;;;;;;5071506;28;20099;-51
2022/01/05 11:59:19;;;;;;;20.88;3.25;;;6.70;99.90;;;;;;5065081;28;20101;-53
2022/01/05 12:01:57;;;;;;;17.33;3.28;;;6.80;99.90;;;;;;5069240;28;20057;-53
2022/01/05 12:04:24;;;;;;;18.85;3.38;;;6.80;99.90;;;;;;5052822;28;20045;-51
2022/01/05 12:06:49;;;;;;;18.17;3.00;;;6.90;99.90;;;;;;5069426;28;20037;-50
2022/01/05 12:09:20;;;;;;;21.05;3.35;;;6.90;99.90;;;;;;5068281;28;20052;-51
2022/01/05 12:11:46;;;;;;;18.35;2.85;;;6.90;99.90;;;;;;5069744;28;20102;-48
2022/01/05 12:14:20;;;;;;;18.38;2.75;;;6.90;99.90;;;;;;5068446;28;20131;-52
2022/01/05 12:17:07;;;;;;;20.08;2.92;;;6.90;99.90;;;;;;5063158;28;20032;-51
2022/01/05 12:19:46;;;;;;;16.60;2.75;;;6.90;99.90;;;;;;5062630;28;20044;-50
2022/01/05 12:22:16;;;;;;;15.77;2.67;;;7.00;99.90;;;;;;5057426;28;20044;-52
2022/01/05 12:24:57;;;;;;;14.38;2.45;;;6.90;99.90;;;;;;5065012;28;20079;-51
2022/01/05 12:27:33;;;;;;;13.85;2.40;;;6.90;99.90;;;;;;5072068;28;20497;-50
2022/01/05 12:30:00;;;;;;;12.18;2.28;;;7.10;99.90;;;;;;5072042;28;20032;-52
2022/01/05 12:32:36;;;;;;;16.60;2.60;;;;;;;;;;5071902;28;20052;-51
2022/01/05 12:35:06;;;;;;;14.65;2.60;;;;;;;;;;5063591;28;20044;-50
2022/01/05 12:37:39;;;;;;;21.35;2.70;;;;;;;;;;5062386;28;20039;-52
2022/01/05 12:40:24;;;;;;;15.23;3.30;;;;;;;;;;5069777;28;20102;-55
2022/01/05 12:43:10;;;;;;;17.77;2.72;;;;;;;;;;5071317;28;20120;-54
2022/01/05 12:45:51;;;;;;;14.43;2.92;;;;;;;;;;5067421;28;20044;-54
2022/01/05 12:48:32;;;;;;;16.60;3.33;;;;;;;;;;5070907;28;20048;-54
2022/01/05 12:51:14;;;;;;;13.02;2.50;;;;;;;;;;5062798;28;20182;-54
2022/01/05 12:53:50;;;;;;;12.63;2.58;;;;;;;;;;5069121;28;20048;-54
2022/01/05 12:56:19;;;;;;;19.15;3.10;;;;;;;;;;5071250;28;20486;-55
2022/01/05 12:58:47;;;;;;;18.63;3.15;;;;;;;;;;5071894;28;20048;-55